sensor_id;sensor_type;location;lat;lon;timestamp;pressure;altitude;pressure_sealevel;temperature;humidity
19600;BME280;9947;57.722;12.012;2024-02-23T00:00:14;98333.72;;;5.43;100.00
19600;BME280;9947;57.722;12.012;2024-02-23T00:02:44;98326.25;;;5.46;100.00
19600;BME280;9947;57.722;12.012;2024-02-23T00:05:13;98314.56;;;5.47;100.00
19600;BME280;9947;57.722;12.012;2024-02-23T00:07:44;98295.50;;;5.50;100.00
19600;BME280;9947;57.722;12.012;2024-02-23T00:10:14;98283.66;;;5.53;100.00
19600;BME280;9947;57.722;12.012;2024-02-23T00:12:56;98260.53;;;5.52;100.00
19600;BME280;9947;57.722;12.012;2024-02-23T00:15:25;98250.50;;;5.54;100.00
19600;BME280;9947;57.722;12.012;2024-02-23T00:17:54;98241.47;;;5.55;100.00
19600;BME280;9947;57.722;12.012;2024-02-23T00:20:23;98227.53;;;5.51;100.00
19600;BME280;9947;57.722;12.012;2024-02-23T00:22:50;98202.28;;;5.54;100.00
19600;BME280;9947;57.722;12.012;2024-02-23T00:25:22;98205.94;;;5.53;100.00
19600;BME280;9947;57.722;12.012;2024-02-23T00:27:50;98181.13;;;5.51;100.00
19600;BME280;9947;57.722;12.012;2024-02-23T00:30:19;98165.06;;;5.51;100.00
19600;BME280;9947;57.722;12.012;2024-02-23T00:32:56;98158.00;;;5.50;100.00
19600;BME280;9947;57.722;12.012;2024-02-23T00:35:24;98146.00;;;5.54;100.00
19600;BME280;9947;57.722;12.012;2024-02-23T00:37:53;98136.28;;;5.53;100.00
19600;BME280;9947;57.722;12.012;2024-02-23T00:40:25;98121.28;;;5.60;100.00
19600;BME280;9947;57.722;12.012;2024-02-23T00:42:54;98108.88;;;5.59;100.00
19600;BME280;9947;57.722;12.012;2024-02-23T00:45:28;98091.25;;;5.56;100.00
19600;BME280;9947;57.722;12.012;2024-02-23T00:48:03;98078.09;;;5.63;100.00
19600;BME280;9947;57.722;12.012;2024-02-23T00:50:49;98072.13;;;5.69;100.00
19600;BME280;9947;57.722;12.012;2024-02-23T00:53:20;98046.16;;;5.70;100.00
19600;BME280;9947;57.722;12.012;2024-02-23T00:55:49;98035.28;;;5.71;100.00
19600;BME280;9947;57.722;12.012;2024-02-23T00:58:19;98013.00;;;5.71;100.00
19600;BME280;9947;57.722;12.012;2024-02-23T01:00:49;98007.47;;;5.72;100.00
19600;BME280;9947;57.722;12.012;2024-02-23T01:03:18;97981.22;;;5.76;100.00
19600;BME280;9947;57.722;12.012;2024-02-23T01:05:47;97978.25;;;5.79;100.00
19600;BME280;9947;57.722;12.012;2024-02-23T01:08:19;97961.31;;;5.78;100.00
19600;BME280;9947;57.722;12.012;2024-02-23T01:10:51;97948.75;;;5.79;100.00
19600;BME280;9947;57.722;12.012;2024-02-23T01:13:19;97940.56;;;5.80;100.00
19600;BME280;9947;57.722;12.012;2024-02-23T01:15:47;97935.19;;;5.80;100.00
19600;BME280;9947;57.722;12.012;2024-02-23T01:18:16;97934.19;;;5.81;100.00
19600;BME280;9947;57.722;12.012;2024-02-23T01:20:44;97911.59;;;5.84;100.00
19600;BME280;9947;57.722;12.012;2024-02-23T01:23:12;97907.56;;;5.80;100.00
19600;BME280;9947;57.722;12.012;2024-02-23T01:25:44;97901.03;;;5.82;100.00
19600;BME280;9947;57.722;12.012;2024-02-23T01:28:17;97895.78;;;5.73;100.00
19600;BME280;9947;57.722;12.012;2024-02-23T01:30:45;97885.06;;;5.73;100.00
19600;BME280;9947;57.722;12.012;2024-02-23T01:33:23;97885.06;;;5.73;100.00
19600;BME280;9947;57.722;12.012;2024-02-23T01:35:52;97891.38;;;5.72;100.00
19600;BME280;9947;57.722;12.012;2024-02-23T01:38:25;97880.97;;;5.69;100.00
19600;BME280;9947;57.722;12.012;2024-02-23T01:40:57;97872.94;;;5.69;100.00
19600;BME280;9947;57.722;12.012;2024-02-23T01:43:27;97863.75;;;5.71;100.00
19600;BME280;9947;57.722;12.012;2024-02-23T01:45:58;97863.91;;;5.70;100.00
19600;BME280;9947;57.722;12.012;2024-02-23T01:48:26;97862.53;;;5.66;100.00
19600;BME280;9947;57.722;12.012;2024-02-23T01:50:54;97857.53;;;5.71;100.00
19600;BME280;9947;57.722;12.012;2024-02-23T01:53:21;97850.22;;;5.73;100.00
19600;BME280;9947;57.722;12.012;2024-02-23T01:55:51;97846.97;;;5.69;100.00
19600;BME280;9947;57.722;12.012;2024-02-23T01:58:19;97855.84;;;5.70;100.00
19600;BME280;9947;57.722;12.012;2024-02-23T02:00:50;97842.47;;;5.70;100.00
19600;BME280;9947;57.722;12.012;2024-02-23T02:03:17;97846.53;;;5.74;100.00
19600;BME280;9947;57.722;12.012;2024-02-23T02:05:46;97860.47;;;5.77;100.00
19600;BME280;9947;57.722;12.012;2024-02-23T02:08:15;97854.78;;;5.80;100.00
19600;BME280;9947;57.722;12.012;2024-02-23T02:10:43;97856.78;;;5.78;100.00
19600;BME280;9947;57.722;12.012;2024-02-23T02:13:12;97870.19;;;5.78;100.00
19600;BME280;9947;57.722;12.012;2024-02-23T02:15:41;97869.69;;;5.83;100.00
19600;BME280;9947;57.722;12.012;2024-02-23T02:18:16;97874.06;;;5.84;100.00
19600;BME280;9947;57.722;12.012;2024-02-23T02:20:51;97875.91;;;5.83;100.00
19600;BME280;9947;57.722;12.012;2024-02-23T02:23:18;97888.31;;;5.84;100.00
19600;BME280;9947;57.722;12.012;2024-02-23T02:25:52;97881.94;;;5.85;100.00
19600;BME280;9947;57.722;12.012;2024-02-23T02:28:20;97876.44;;;5.87;100.00
19600;BME280;9947;57.722;12.012;2024-02-23T02:30:50;97878.94;;;5.88;100.00
19600;BME280;9947;57.722;12.012;2024-02-23T02:33:19;97885.03;;;5.91;100.00
19600;BME280;9947;57.722;12.012;2024-02-23T02:35:47;97861.72;;;5.91;100.00
19600;BME280;9947;57.722;12.012;2024-02-23T02:38:16;97857.72;;;5.95;100.00
19600;BME280;9947;57.722;12.012;2024-02-23T02:40:44;97869.13;;;5.97;100.00
19600;BME280;9947;57.722;12.012;2024-02-23T02:43:11;97861.25;;;5.96;100.00
19600;BME280;9947;57.722;12.012;2024-02-23T02:45:44;97855.72;;;5.97;100.00
19600;BME280;9947;57.722;12.012;2024-02-23T02:48:11;97865.78;;;5.95;100.00
19600;BME280;9947;57.722;12.012;2024-02-23T02:50:42;97841.81;;;5.94;100.00
19600;BME280;9947;57.722;12.012;2024-02-23T02:53:10;97840.03;;;6.02;100.00
19600;BME280;9947;57.722;12.012;2024-02-23T02:55:41;97835.66;;;6.01;100.00
19600;BME280;9947;57.722;12.012;2024-02-23T02:58:13;97842.38;;;6.05;100.00
19600;BME280;9947;57.722;12.012;2024-02-23T03:00:40;97826.47;;;6.04;100.00
19600;BME280;9947;57.722;12.012;2024-02-23T03:03:08;97833.50;;;6.05;100.00
19600;BME280;9947;57.722;12.012;2024-02-23T03:05:35;97835.88;;;6.08;100.00
19600;BME280;9947;57.722;12.012;2024-02-23T03:08:05;97844.75;;;6.08;100.00
19600;BME280;9947;57.722;12.012;2024-02-23T03:10:35;97850.78;;;6.10;100.00
19600;BME280;9947;57.722;12.012;2024-02-23T03:13:02;97849.94;;;6.10;100.00
19600;BME280;9947;57.722;12.012;2024-02-23T03:15:30;97853.16;;;6.13;100.00
19600;BME280;9947;57.722;12.012;2024-02-23T03:17:57;97850.47;;;6.13;100.00
19600;BME280;9947;57.722;12.012;2024-02-23T03:20:26;97829.00;;;6.13;100.00
19600;BME280;9947;57.722;12.012;2024-02-23T03:22:55;97841.94;;;6.18;100.00
19600;BME280;9947;57.722;12.012;2024-02-23T03:25:25;97832.88;;;6.19;100.00
19600;BME280;9947;57.722;12.012;2024-02-23T03:27:52;97838.94;;;6.21;100.00
19600;BME280;9947;57.722;12.012;2024-02-23T03:30:21;97837.75;;;6.24;100.00
19600;BME280;9947;57.722;12.012;2024-02-23T03:32:49;97834.41;;;6.22;100.00
19600;BME280;9947;57.722;12.012;2024-02-23T03:35:18;97861.06;;;6.23;100.00
19600;BME280;9947;57.722;12.012;2024-02-23T03:37:46;97872.84;;;6.30;100.00
19600;BME280;9947;57.722;12.012;2024-02-23T03:40:14;97886.94;;;6.32;100.00
19600;BME280;9947;57.722;12.012;2024-02-23T03:42:47;97886.09;;;6.32;100.00
19600;BME280;9947;57.722;12.012;2024-02-23T03:45:15;97907.06;;;6.28;100.00
19600;BME280;9947;57.722;12.012;2024-02-23T03:47:45;97921.16;;;6.30;100.00
19600;BME280;9947;57.722;12.012;2024-02-23T03:50:13;97936.09;;;6.33;100.00
19600;BME280;9947;57.722;12.012;2024-02-23T03:52:41;97946.34;;;6.37;100.00
19600;BME280;9947;57.722;12.012;2024-02-23T03:55:09;97943.53;;;6.47;100.00
19600;BME280;9947;57.722;12.012;2024-02-23T03:57:37;97946.03;;;6.48;100.00
19600;BME280;9947;57.722;12.012;2024-02-23T04:00:09;97927.09;;;6.50;100.00
19600;BME280;9947;57.722;12.012;2024-02-23T04:02:38;97935.00;;;6.52;100.00
19600;BME280;9947;57.722;12.012;2024-02-23T04:05:06;97908.53;;;6.57;100.00
19600;BME280;9947;57.722;12.012;2024-02-23T04:07:33;97900.16;;;6.60;100.00
19600;BME280;9947;57.722;12.012;2024-02-23T04:10:05;97873.81;;;6.63;100.00
19600;BME280;9947;57.722;12.012;2024-02-23T04:12:33;97835.41;;;6.63;100.00
19600;BME280;9947;57.722;12.012;2024-02-23T04:15:12;97819.28;;;6.55;100.00
19600;BME280;9947;57.722;12.012;2024-02-23T04:17:40;97746.63;;;6.40;100.00
19600;BME280;9947;57.722;12.012;2024-02-23T04:22:47;97600.00;;;5.98;100.00
19600;BME280;9947;57.722;12.012;2024-02-23T04:25:17;97516.03;;;5.81;100.00
19600;BME280;9947;57.722;12.012;2024-02-23T04:27:44;97402.94;;;5.70;100.00
19600;BME280;9947;57.722;12.012;2024-02-23T04:30:17;97288.06;;;5.58;100.00
19600;BME280;9947;57.722;12.012;2024-02-23T04:32:45;97139.25;;;5.48;100.00
19600;BME280;9947;57.722;12.012;2024-02-23T04:35:15;97061.78;;;5.38;100.00
19600;BME280;9947;57.722;12.012;2024-02-23T04:37:44;96860.50;;;5.26;100.00
19600;BME280;9947;57.722;12.012;2024-02-23T04:40:12;96829.44;;;5.17;100.00
19600;BME280;9947;57.722;12.012;2024-02-23T04:42:44;96754.19;;;5.12;100.00
19600;BME280;9947;57.722;12.012;2024-02-23T04:45:12;96695.19;;;5.06;100.00
19600;BME280;9947;57.722;12.012;2024-02-23T04:47:43;96607.25;;;5.03;100.00
19600;BME280;9947;57.722;12.012;2024-02-23T04:50:12;96585.56;;;4.98;100.00
19600;BME280;9947;57.722;12.012;2024-02-23T04:52:39;96564.03;;;4.91;100.00
19600;BME280;9947;57.722;12.012;2024-02-23T04:55:13;96522.03;;;4.91;100.00
19600;BME280;9947;57.722;12.012;2024-02-23T04:57:40;96546.03;;;4.85;100.00
19600;BME280;9947;57.722;12.012;2024-02-23T05:00:12;96515.31;;;4.81;100.00
19600;BME280;9947;57.722;12.012;2024-02-23T05:02:39;96477.97;;;4.73;100.00
19600;BME280;9947;57.722;12.012;2024-02-23T05:05:08;96502.94;;;4.65;100.00
19600;BME280;9947;57.722;12.012;2024-02-23T05:07:35;96517.06;;;4.59;100.00
19600;BME280;9947;57.722;12.012;2024-02-23T05:10:04;96542.88;;;4.52;100.00
19600;BME280;9947;57.722;12.012;2024-02-23T05:12:33;96505.69;;;4.42;100.00
19600;BME280;9947;57.722;12.012;2024-02-23T05:15:00;96542.84;;;4.37;100.00
19600;BME280;9947;57.722;12.012;2024-02-23T05:17:29;96556.75;;;4.32;100.00
19600;BME280;9947;57.722;12.012;2024-02-23T05:19:56;96563.94;;;4.32;100.00
19600;BME280;9947;57.722;12.012;2024-02-23T05:22:26;96559.97;;;4.28;100.00
19600;BME280;9947;57.722;12.012;2024-02-23T05:24:53;96575.34;;;4.26;100.00
19600;BME280;9947;57.722;12.012;2024-02-23T05:27:21;96609.63;;;4.22;100.00
19600;BME280;9947;57.722;12.012;2024-02-23T05:29:49;96582.44;;;4.19;100.00
19600;BME280;9947;57.722;12.012;2024-02-23T05:32:16;96653.97;;;4.09;100.00
19600;BME280;9947;57.722;12.012;2024-02-23T05:34:43;96674.94;;;3.97;100.00
19600;BME280;9947;57.722;12.012;2024-02-23T05:37:11;96717.50;;;3.98;100.00
19600;BME280;9947;57.722;12.012;2024-02-23T05:39:41;96696.13;;;3.98;100.00
19600;BME280;9947;57.722;12.012;2024-02-23T05:42:09;96712.53;;;3.95;100.00
19600;BME280;9947;57.722;12.012;2024-02-23T05:44:37;96730.56;;;3.93;100.00
19600;BME280;9947;57.722;12.012;2024-02-23T05:47:04;96734.41;;;3.91;100.00
19600;BME280;9947;57.722;12.012;2024-02-23T05:49:34;96739.25;;;3.87;100.00
19600;BME280;9947;57.722;12.012;2024-02-23T05:52:03;96775.34;;;3.83;100.00
19600;BME280;9947;57.722;12.012;2024-02-23T05:54:30;96729.44;;;3.80;100.00
19600;BME280;9947;57.722;12.012;2024-02-23T05:57:00;96757.16;;;3.79;100.00
19600;BME280;9947;57.722;12.012;2024-02-23T05:59:30;96774.03;;;3.79;100.00
19600;BME280;9947;57.722;12.012;2024-02-23T06:01:58;96765.34;;;3.77;100.00
19600;BME280;9947;57.722;12.012;2024-02-23T06:04:26;96806.91;;;3.80;100.00
19600;BME280;9947;57.722;12.012;2024-02-23T06:06:54;96809.06;;;3.84;100.00
19600;BME280;9947;57.722;12.012;2024-02-23T06:09:24;96770.81;;;3.84;100.00
19600;BME280;9947;57.722;12.012;2024-02-23T06:11:53;96813.06;;;3.88;100.00
19600;BME280;9947;57.722;12.012;2024-02-23T06:14:22;96804.03;;;3.89;100.00
19600;BME280;9947;57.722;12.012;2024-02-23T06:16:50;96779.16;;;3.89;100.00
19600;BME280;9947;57.722;12.012;2024-02-23T06:19:19;96762.63;;;3.93;100.00
19600;BME280;9947;57.722;12.012;2024-02-23T06:21:48;96755.94;;;3.97;100.00
19600;BME280;9947;57.722;12.012;2024-02-23T06:24:16;96704.63;;;4.02;100.00
19600;BME280;9947;57.722;12.012;2024-02-23T06:26:47;96687.53;;;4.11;100.00
19600;BME280;9947;57.722;12.012;2024-02-23T06:29:15;96649.75;;;4.14;100.00
19600;BME280;9947;57.722;12.012;2024-02-23T06:31:43;96689.34;;;4.19;100.00
19600;BME280;9947;57.722;12.012;2024-02-23T06:34:15;96627.50;;;4.22;100.00
19600;BME280;9947;57.722;12.012;2024-02-23T06:36:43;96615.44;;;4.26;100.00
19600;BME280;9947;57.722;12.012;2024-02-23T06:39:10;96629.84;;;4.25;100.00
19600;BME280;9947;57.722;12.012;2024-02-23T06:41:39;96606.88;;;4.30;100.00
19600;BME280;9947;57.722;12.012;2024-02-23T06:44:06;96588.00;;;4.32;100.00
19600;BME280;9947;57.722;12.012;2024-02-23T06:46:35;96624.22;;;4.34;100.00
19600;BME280;9947;57.722;12.012;2024-02-23T06:49:06;96612.53;;;4.36;100.00
19600;BME280;9947;57.722;12.012;2024-02-23T06:51:37;96645.63;;;4.34;100.00
19600;BME280;9947;57.722;12.012;2024-02-23T06:54:06;96653.00;;;4.32;100.00
19600;BME280;9947;57.722;12.012;2024-02-23T06:56:34;96707.13;;;4.34;100.00
19600;BME280;9947;57.722;12.012;2024-02-23T06:59:03;96706.63;;;4.31;100.00
19600;BME280;9947;57.722;12.012;2024-02-23T07:03:56;96677.94;;;4.25;100.00
19600;BME280;9947;57.722;12.012;2024-02-23T07:06:25;96685.13;;;4.24;100.00
19600;BME280;9947;57.722;12.012;2024-02-23T07:08:55;96706.16;;;4.27;100.00
19600;BME280;9947;57.722;12.012;2024-02-23T07:11:22;96677.94;;;4.25;100.00
19600;BME280;9947;57.722;12.012;2024-02-23T07:13:49;96690.78;;;4.29;100.00
19600;BME280;9947;57.722;12.012;2024-02-23T07:16:17;96664.41;;;4.26;100.00
19600;BME280;9947;57.722;12.012;2024-02-23T07:18:48;96676.22;;;4.32;100.00
19600;BME280;9947;57.722;12.012;2024-02-23T07:21:17;96659.16;;;4.33;100.00
19600;BME280;9947;57.722;12.012;2024-02-23T07:23:47;96677.53;;;4.36;100.00
19600;BME280;9947;57.722;12.012;2024-02-23T07:26:29;96669.97;;;4.40;100.00
19600;BME280;9947;57.722;12.012;2024-02-23T07:28:57;96688.03;;;4.38;100.00
19600;BME280;9947;57.722;12.012;2024-02-23T07:31:24;96684.16;;;4.40;100.00
19600;BME280;9947;57.722;12.012;2024-02-23T07:33:51;96713.59;;;4.40;100.00
19600;BME280;9947;57.722;12.012;2024-02-23T07:36:21;96700.41;;;4.39;100.00
19600;BME280;9947;57.722;12.012;2024-02-23T07:38:52;96687.50;;;4.42;100.00
19600;BME280;9947;57.722;12.012;2024-02-23T07:41:25;96765.72;;;4.44;100.00
19600;BME280;9947;57.722;12.012;2024-02-23T07:43:53;96721.94;;;4.45;100.00
19600;BME280;9947;57.722;12.012;2024-02-23T07:48:45;96767.69;;;4.50;100.00
19600;BME280;9947;57.722;12.012;2024-02-23T07:51:13;96826.69;;;4.49;100.00
19600;BME280;9947;57.722;12.012;2024-02-23T07:53:45;96836.41;;;4.42;100.00
19600;BME280;9947;57.722;12.012;2024-02-23T07:56:20;96872.34;;;4.39;100.00
19600;BME280;9947;57.722;12.012;2024-02-23T07:58:48;96876.88;;;4.39;100.00
19600;BME280;9947;57.722;12.012;2024-02-23T08:01:18;96934.19;;;4.36;100.00
19600;BME280;9947;57.722;12.012;2024-02-23T08:03:45;96922.50;;;4.37;100.00
19600;BME280;9947;57.722;12.012;2024-02-23T08:06:13;96938.19;;;4.40;100.00
19600;BME280;9947;57.722;12.012;2024-02-23T08:08:40;96934.69;;;4.48;100.00
19600;BME280;9947;57.722;12.012;2024-02-23T08:11:08;96970.59;;;4.53;100.00
19600;BME280;9947;57.722;12.012;2024-02-23T08:13:40;96966.56;;;4.57;100.00
19600;BME280;9947;57.722;12.012;2024-02-23T08:16:07;96962.53;;;4.61;100.00
19600;BME280;9947;57.722;12.012;2024-02-23T08:18:34;96973.06;;;4.63;100.00
19600;BME280;9947;57.722;12.012;2024-02-23T08:21:02;96983.09;;;4.69;100.00
19600;BME280;9947;57.722;12.012;2024-02-23T08:23:32;96973.56;;;4.67;100.00
19600;BME280;9947;57.722;12.012;2024-02-23T08:26:00;97012.84;;;4.74;100.00
19600;BME280;9947;57.722;12.012;2024-02-23T08:28:29;97021.34;;;4.78;100.00
19600;BME280;9947;57.722;12.012;2024-02-23T08:30:58;97006.13;;;4.78;100.00
19600;BME280;9947;57.722;12.012;2024-02-23T08:35:53;97109.50;;;4.55;100.00
19600;BME280;9947;57.722;12.012;2024-02-23T08:38:36;97171.53;;;4.50;100.00
19600;BME280;9947;57.722;12.012;2024-02-23T08:41:04;97194.28;;;4.46;100.00
19600;BME280;9947;57.722;12.012;2024-02-23T08:43:32;97257.97;;;4.51;100.00
19600;BME280;9947;57.722;12.012;2024-02-23T08:46:03;97305.09;;;4.52;100.00
19600;BME280;9947;57.722;12.012;2024-02-23T08:48:32;97320.81;;;4.55;100.00
19600;BME280;9947;57.722;12.012;2024-02-23T08:51:03;97335.69;;;4.57;100.00
19600;BME280;9947;57.722;12.012;2024-02-23T08:53:31;97331.06;;;4.76;100.00
19600;BME280;9947;57.722;12.012;2024-02-23T08:55:58;97291.59;;;4.86;100.00
19600;BME280;9947;57.722;12.012;2024-02-23T09:00:51;97238.94;;;5.03;100.00
19600;BME280;9947;57.722;12.012;2024-02-23T09:05:47;97201.44;;;5.03;100.00
19600;BME280;9947;57.722;12.012;2024-02-23T09:08:15;97202.25;;;5.19;100.00
19600;BME280;9947;57.722;12.012;2024-02-23T09:10:43;97180.13;;;5.34;100.00
19600;BME280;9947;57.722;12.012;2024-02-23T09:13:11;97187.47;;;5.40;100.00
19600;BME280;9947;57.722;12.012;2024-02-23T09:15:38;97192.84;;;5.48;100.00
19600;BME280;9947;57.722;12.012;2024-02-23T09:18:16;97207.56;;;5.44;100.00
19600;BME280;9947;57.722;12.012;2024-02-23T09:20:59;97215.97;;;5.33;100.00
19600;BME280;9947;57.722;12.012;2024-02-23T09:25:52;97264.34;;;5.23;100.00
19600;BME280;9947;57.722;12.012;2024-02-23T09:30:47;97287.09;;;5.35;100.00
19600;BME280;9947;57.722;12.012;2024-02-23T09:33:18;97269.50;;;5.49;100.00
19600;BME280;9947;57.722;12.012;2024-02-23T09:35:45;97275.53;;;5.51;100.00
19600;BME280;9947;57.722;12.012;2024-02-23T09:38:16;97261.91;;;5.69;100.00
19600;BME280;9947;57.722;12.012;2024-02-23T09:40:43;97267.63;;;5.74;100.00
19600;BME280;9947;57.722;12.012;2024-02-23T09:43:12;97285.16;;;5.84;100.00
19600;BME280;9947;57.722;12.012;2024-02-23T09:45:43;97298.91;;;5.90;100.00
19600;BME280;9947;57.722;12.012;2024-02-23T09:48:12;97296.91;;;5.83;100.00
19600;BME280;9947;57.722;12.012;2024-02-23T09:50:41;97343.81;;;5.63;100.00
19600;BME280;9947;57.722;12.012;2024-02-23T09:53:11;97348.88;;;5.58;100.00
19600;BME280;9947;57.722;12.012;2024-02-23T09:55:49;97370.13;;;5.60;100.00
19600;BME280;9947;57.722;12.012;2024-02-23T09:58:19;97371.13;;;5.58;100.00
19600;BME280;9947;57.722;12.012;2024-02-23T10:00:47;97380.50;;;5.71;100.00
19600;BME280;9947;57.722;12.012;2024-02-23T10:03:15;97374.63;;;5.92;100.00
19600;BME280;9947;57.722;12.012;2024-02-23T10:05:45;97374.31;;;6.03;100.00
19600;BME280;9947;57.722;12.012;2024-02-23T10:08:15;97381.00;;;6.07;100.00
19600;BME280;9947;57.722;12.012;2024-02-23T10:10:46;97385.63;;;6.21;100.00
19600;BME280;9947;57.722;12.012;2024-02-23T10:13:18;97386.28;;;6.31;100.00
19600;BME280;9947;57.722;12.012;2024-02-23T10:15:47;97385.38;;;6.55;100.00
19600;BME280;9947;57.722;12.012;2024-02-23T10:18:15;97390.25;;;6.52;100.00
19600;BME280;9947;57.722;12.012;2024-02-23T10:20:50;97410.34;;;6.56;100.00
19600;BME280;9947;57.722;12.012;2024-02-23T10:23:19;97421.47;;;6.36;100.00
19600;BME280;9947;57.722;12.012;2024-02-23T10:25:48;97452.50;;;6.39;100.00
19600;BME280;9947;57.722;12.012;2024-02-23T10:28:15;97442.41;;;6.49;100.00
19600;BME280;9947;57.722;12.012;2024-02-23T10:30:48;97452.28;;;6.48;100.00
19600;BME280;9947;57.722;12.012;2024-02-23T10:33:19;97461.44;;;6.70;100.00
19600;BME280;9947;57.722;12.012;2024-02-23T10:35:51;97476.16;;;6.35;100.00
19600;BME280;9947;57.722;12.012;2024-02-23T10:38:32;97498.91;;;6.47;100.00
19600;BME280;9947;57.722;12.012;2024-02-23T10:41:01;97497.72;;;6.50;100.00
19600;BME280;9947;57.722;12.012;2024-02-23T10:43:36;97529.41;;;6.63;100.00
19600;BME280;9947;57.722;12.012;2024-02-23T10:46:07;97517.22;;;6.36;100.00
19600;BME280;9947;57.722;12.012;2024-02-23T10:48:38;97548.59;;;6.27;100.00
19600;BME280;9947;57.722;12.012;2024-02-23T10:51:08;97564.53;;;6.29;100.00
19600;BME280;9947;57.722;12.012;2024-02-23T10:53:39;97575.72;;;6.24;100.00
19600;BME280;9947;57.722;12.012;2024-02-23T10:56:11;97572.22;;;6.15;100.00
19600;BME280;9947;57.722;12.012;2024-02-23T10:58:42;97594.63;;;5.98;100.00
19600;BME280;9947;57.722;12.012;2024-02-23T11:01:10;97619.94;;;5.96;100.00
19600;BME280;9947;57.722;12.012;2024-02-23T11:03:42;97608.25;;;6.05;100.00
19600;BME280;9947;57.722;12.012;2024-02-23T11:06:18;97631.03;;;6.09;100.00
19600;BME280;9947;57.722;12.012;2024-02-23T11:08:48;97625.03;;;6.39;100.00
19600;BME280;9947;57.722;12.012;2024-02-23T11:11:18;97635.91;;;6.13;100.00
19600;BME280;9947;57.722;12.012;2024-02-23T11:13:46;97646.00;;;6.36;100.00
19600;BME280;9947;57.722;12.012;2024-02-23T11:16:22;97633.44;;;6.53;100.00
19600;BME280;9947;57.722;12.012;2024-02-23T11:19:05;97645.19;;;6.52;100.00
19600;BME280;9947;57.722;12.012;2024-02-23T11:21:34;97671.66;;;6.38;100.00
19600;BME280;9947;57.722;12.012;2024-02-23T11:24:03;97692.78;;;6.25;100.00
19600;BME280;9947;57.722;12.012;2024-02-23T11:26:37;97723.41;;;6.06;100.00
19600;BME280;9947;57.722;12.012;2024-02-23T11:29:10;97749.53;;;6.04;100.00
19600;BME280;9947;57.722;12.012;2024-02-23T11:31:44;97761.47;;;5.84;100.00
19600;BME280;9947;57.722;12.012;2024-02-23T11:34:13;97774.19;;;6.16;100.00
19600;BME280;9947;57.722;12.012;2024-02-23T11:36:40;97759.53;;;6.44;100.00
19600;BME280;9947;57.722;12.012;2024-02-23T11:39:10;97749.97;;;6.42;100.00
19600;BME280;9947;57.722;12.012;2024-02-23T11:41:41;97767.19;;;6.23;100.00
19600;BME280;9947;57.722;12.012;2024-02-23T11:44:09;97801.09;;;5.98;100.00
19600;BME280;9947;57.722;12.012;2024-02-23T11:46:40;97840.44;;;5.90;100.00
19600;BME280;9947;57.722;12.012;2024-02-23T11:49:12;97862.97;;;5.79;100.00
19600;BME280;9947;57.722;12.012;2024-02-23T11:51:39;97888.91;;;5.96;100.00
19600;BME280;9947;57.722;12.012;2024-02-23T11:54:10;97900.63;;;6.21;100.00
19600;BME280;9947;57.722;12.012;2024-02-23T11:56:42;97889.56;;;6.24;100.00
19600;BME280;9947;57.722;12.012;2024-02-23T11:59:20;97891.69;;;6.12;100.00
19600;BME280;9947;57.722;12.012;2024-02-23T12:01:49;97901.63;;;5.94;100.00
19600;BME280;9947;57.722;12.012;2024-02-23T12:04:17;97918.47;;;5.86;100.00
19600;BME280;9947;57.722;12.012;2024-02-23T12:06:47;97917.97;;;6.01;100.00
19600;BME280;9947;57.722;12.012;2024-02-23T12:09:14;97916.47;;;6.06;100.00
19600;BME280;9947;57.722;12.012;2024-02-23T12:11:49;97923.69;;;6.06;100.00
19600;BME280;9947;57.722;12.012;2024-02-23T12:14:17;97921.63;;;5.82;100.00
19600;BME280;9947;57.722;12.012;2024-02-23T12:16:46;97958.69;;;5.69;100.00
19600;BME280;9947;57.722;12.012;2024-02-23T12:19:12;97966.38;;;5.81;100.00
19600;BME280;9947;57.722;12.012;2024-02-23T12:21:45;97985.13;;;5.81;100.00
19600;BME280;9947;57.722;12.012;2024-02-23T12:24:16;97994.53;;;5.68;100.00
19600;BME280;9947;57.722;12.012;2024-02-23T12:26:44;98013.41;;;5.76;100.00
19600;BME280;9947;57.722;12.012;2024-02-23T12:29:20;98010.25;;;5.80;100.00
19600;BME280;9947;57.722;12.012;2024-02-23T12:31:47;98010.19;;;5.90;100.00
19600;BME280;9947;57.722;12.012;2024-02-23T12:34:17;98038.13;;;5.87;100.00
19600;BME280;9947;57.722;12.012;2024-02-23T12:36:46;98021.03;;;5.88;100.00
19600;BME280;9947;57.722;12.012;2024-02-23T12:39:14;98035.00;;;5.74;100.00
19600;BME280;9947;57.722;12.012;2024-02-23T12:41:42;98038.97;;;5.52;100.00
19600;BME280;9947;57.722;12.012;2024-02-23T12:44:11;98050.19;;;5.38;100.00
19600;BME280;9947;57.722;12.012;2024-02-23T12:46:41;98079.50;;;5.40;100.00
19600;BME280;9947;57.722;12.012;2024-02-23T12:49:12;98115.09;;;5.32;100.00
19600;BME280;9947;57.722;12.012;2024-02-23T12:51:42;98163.34;;;5.22;100.00
19600;BME280;9947;57.722;12.012;2024-02-23T12:54:09;98207.06;;;5.13;100.00
19600;BME280;9947;57.722;12.012;2024-02-23T12:56:37;98242.72;;;5.14;100.00
19600;BME280;9947;57.722;12.012;2024-02-23T12:59:04;98270.88;;;5.28;100.00
19600;BME280;9947;57.722;12.012;2024-02-23T13:04:05;98259.03;;;5.30;100.00
19600;BME280;9947;57.722;12.012;2024-02-23T13:06:35;98269.19;;;5.17;100.00
19600;BME280;9947;57.722;12.012;2024-02-23T13:09:04;98259.63;;;5.14;100.00
19600;BME280;9947;57.722;12.012;2024-02-23T13:11:35;98275.84;;;5.13;100.00
19600;BME280;9947;57.722;12.012;2024-02-23T13:14:06;98271.19;;;5.05;100.00
19600;BME280;9947;57.722;12.012;2024-02-23T13:16:34;98286.41;;;5.14;100.00
19600;BME280;9947;57.722;12.012;2024-02-23T13:19:08;98280.91;;;5.25;100.00
19600;BME280;9947;57.722;12.012;2024-02-23T13:21:37;98298.78;;;5.35;100.00
19600;BME280;9947;57.722;12.012;2024-02-23T13:24:05;98269.97;;;5.56;100.00
19600;BME280;9947;57.722;12.012;2024-02-23T13:26:32;98253.97;;;5.64;100.00
19600;BME280;9947;57.722;12.012;2024-02-23T13:29:00;98224.19;;;5.67;100.00
19600;BME280;9947;57.722;12.012;2024-02-23T13:33:53;98195.97;;;5.73;100.00
19600;BME280;9947;57.722;12.012;2024-02-23T13:36:27;98205.28;;;5.69;100.00